sensor_id;sensor_type;location;lat;lon;timestamp;pressure;altitude;pressure_sealevel;temperature;humidity
58245;BME280;44550;43.864;25.986;2022-10-16T00:01:29;102003.78;;;10.25;77.74
58245;BME280;44550;43.864;25.986;2022-10-16T00:05:31;102006.72;;;10.34;77.35
58245;BME280;44550;43.864;25.986;2022-10-16T00:09:31;102005.88;;;10.67;76.18
58245;BME280;44550;43.864;25.986;2022-10-16T00:13:31;102003.88;;;10.92;74.70
58245;BME280;44550;43.864;25.986;2022-10-16T00:17:31;102015.03;;;10.85;73.82
58245;BME280;44550;43.864;25.986;2022-10-16T00:21:33;102020.84;;;10.73;73.50
58245;BME280;44550;43.864;25.986;2022-10-16T00:25:32;102015.97;;;10.55;74.24
58245;BME280;44550;43.864;25.986;2022-10-16T00:29:33;102030.41;;;10.41;74.84
58245;BME280;44550;43.864;25.986;2022-10-16T00:33:32;102029.34;;;10.34;75.46
58245;BME280;44550;43.864;25.986;2022-10-16T00:37:34;102033.72;;;10.35;75.41
58245;BME280;44550;43.864;25.986;2022-10-16T00:41:34;102029.03;;;10.23;75.48
58245;BME280;44550;43.864;25.986;2022-10-16T00:45:33;102030.97;;;10.00;75.58
58245;BME280;44550;43.864;25.986;2022-10-16T00:49:33;102033.31;;;9.93;75.40
58245;BME280;44550;43.864;25.986;2022-10-16T00:53:35;102030.63;;;9.89;75.31
58245;BME280;44550;43.864;25.986;2022-10-16T00:57:34;102036.69;;;9.88;75.18
58245;BME280;44550;43.864;25.986;2022-10-16T01:01:34;102031.88;;;10.31;74.69
58245;BME280;44550;43.864;25.986;2022-10-16T01:05:39;102029.44;;;10.69;72.65
58245;BME280;44550;43.864;25.986;2022-10-16T01:09:53;102031.66;;;10.53;72.20
58245;BME280;44550;43.864;25.986;2022-10-16T01:14:00;102027.50;;;10.30;72.62
58245;BME280;44550;43.864;25.986;2022-10-16T01:18:07;102037.75;;;9.95;73.98
58245;BME280;44550;43.864;25.986;2022-10-16T01:22:08;102040.19;;;9.60;75.05
58245;BME280;44550;43.864;25.986;2022-10-16T01:26:31;102030.34;;;8.99;76.54
58245;BME280;44550;43.864;25.986;2022-10-16T01:30:37;102034.44;;;8.67;77.68
58245;BME280;44550;43.864;25.986;2022-10-16T01:34:44;102034.78;;;8.52;78.66
58245;BME280;44550;43.864;25.986;2022-10-16T01:38:48;102035.28;;;8.42;79.39
58245;BME280;44550;43.864;25.986;2022-10-16T01:42:52;102030.59;;;8.33;79.99
58245;BME280;44550;43.864;25.986;2022-10-16T01:46:57;102039.63;;;8.41;80.24
58245;BME280;44550;43.864;25.986;2022-10-16T01:51:02;102045.84;;;8.45;79.92
58245;BME280;44550;43.864;25.986;2022-10-16T01:55:04;102053.53;;;8.42;79.87
58245;BME280;44550;43.864;25.986;2022-10-16T01:59:07;102008.66;;;8.04;80.50
58245;BME280;44550;43.864;25.986;2022-10-16T02:03:12;102050.69;;;8.13;80.91
58245;BME280;44550;43.864;25.986;2022-10-16T02:07:13;102057.47;;;8.08;80.94
58245;BME280;44550;43.864;25.986;2022-10-16T02:11:13;102050.13;;;7.98;81.10
58245;BME280;44550;43.864;25.986;2022-10-16T02:15:13;102062.66;;;8.08;80.82
58245;BME280;44550;43.864;25.986;2022-10-16T02:19:14;102052.81;;;8.01;80.98
58245;BME280;44550;43.864;25.986;2022-10-16T02:23:20;102063.34;;;8.04;81.27
58245;BME280;44550;43.864;25.986;2022-10-16T02:27:27;102072.25;;;8.09;81.32
58245;BME280;44550;43.864;25.986;2022-10-16T02:31:34;102075.66;;;8.31;81.12
58245;BME280;44550;43.864;25.986;2022-10-16T02:35:38;102081.47;;;8.70;79.86
58245;BME280;44550;43.864;25.986;2022-10-16T02:39:38;102074.69;;;8.99;78.03
58245;BME280;44550;43.864;25.986;2022-10-16T02:43:38;102079.53;;;8.88;78.13
58245;BME280;44550;43.864;25.986;2022-10-16T02:47:38;102079.19;;;8.79;78.50
58245;BME280;44550;43.864;25.986;2022-10-16T02:51:42;102087.91;;;8.80;78.23
58245;BME280;44550;43.864;25.986;2022-10-16T02:55:42;102082.66;;;8.78;78.27
58245;BME280;44550;43.864;25.986;2022-10-16T02:59:43;102073.50;;;8.65;78.45
58245;BME280;44550;43.864;25.986;2022-10-16T03:03:42;102091.69;;;8.64;79.17
58245;BME280;44550;43.864;25.986;2022-10-16T03:07:44;102095.00;;;8.60;79.26
58245;BME280;44550;43.864;25.986;2022-10-16T03:11:43;102092.47;;;8.61;79.29
58245;BME280;44550;43.864;25.986;2022-10-16T03:15:43;102098.72;;;8.90;78.65
58245;BME280;44550;43.864;25.986;2022-10-16T03:19:43;102095.53;;;8.98;77.28
58245;BME280;44550;43.864;25.986;2022-10-16T03:23:44;102107.91;;;8.79;77.93
58245;BME280;44550;43.864;25.986;2022-10-16T03:27:44;102106.63;;;8.68;78.14
58245;BME280;44550;43.864;25.986;2022-10-16T03:31:44;102113.34;;;8.61;78.10
58245;BME280;44550;43.864;25.986;2022-10-16T03:35:51;102113.59;;;8.45;78.88
58245;BME280;44550;43.864;25.986;2022-10-16T03:39:53;102096.38;;;8.28;79.27
58245;BME280;44550;43.864;25.986;2022-10-16T03:43:53;102111.63;;;8.39;78.84
58245;BME280;44550;43.864;25.986;2022-10-16T03:47:52;102118.66;;;8.19;78.56
58245;BME280;44550;43.864;25.986;2022-10-16T03:51:52;102126.28;;;7.92;79.11
58245;BME280;44550;43.864;25.986;2022-10-16T03:55:54;102120.41;;;7.75;80.35
58245;BME280;44550;43.864;25.986;2022-10-16T03:59:53;102109.03;;;7.73;81.43
58245;BME280;44550;43.864;25.986;2022-10-16T04:03:53;102119.81;;;7.83;81.66
58245;BME280;44550;43.864;25.986;2022-10-16T04:07:52;102114.28;;;7.96;81.77
58245;BME280;44550;43.864;25.986;2022-10-16T04:11:54;102108.66;;;8.08;82.04
58245;BME280;44550;43.864;25.986;2022-10-16T04:15:54;102119.50;;;8.18;81.99
58245;BME280;44550;43.864;25.986;2022-10-16T04:19:53;102119.63;;;8.21;81.26
58245;BME280;44550;43.864;25.986;2022-10-16T04:23:53;102121.44;;;8.24;80.61
58245;BME280;44550;43.864;25.986;2022-10-16T04:27:55;102132.81;;;8.26;80.41
58245;BME280;44550;43.864;25.986;2022-10-16T04:31:55;102127.72;;;8.29;79.95
58245;BME280;44550;43.864;25.986;2022-10-16T04:35:59;102115.28;;;8.22;79.65
58245;BME280;44550;43.864;25.986;2022-10-16T04:40:00;102126.53;;;8.21;80.09
58245;BME280;44550;43.864;25.986;2022-10-16T04:44:05;102136.75;;;8.15;80.73
58245;BME280;44550;43.864;25.986;2022-10-16T04:48:07;102146.16;;;8.11;81.86
58245;BME280;44550;43.864;25.986;2022-10-16T04:52:07;102136.25;;;8.03;83.41
58245;BME280;44550;43.864;25.986;2022-10-16T04:56:07;102159.09;;;8.10;85.57
58245;BME280;44550;43.864;25.986;2022-10-16T05:00:11;102169.22;;;8.02;87.48
58245;BME280;44550;43.864;25.986;2022-10-16T05:04:13;102111.38;;;7.67;88.59
58245;BME280;44550;43.864;25.986;2022-10-16T05:08:20;102174.91;;;8.14;88.71
58245;BME280;44550;43.864;25.986;2022-10-16T05:12:19;102178.38;;;8.36;88.14
58245;BME280;44550;43.864;25.986;2022-10-16T05:16:22;102163.72;;;8.38;87.44
58245;BME280;44550;43.864;25.986;2022-10-16T05:20:22;102122.75;;;8.13;86.47
58245;BME280;44550;43.864;25.986;2022-10-16T05:24:23;102189.44;;;8.51;86.37
58245;BME280;44550;43.864;25.986;2022-10-16T05:28:25;102198.78;;;8.46;86.18
58245;BME280;44550;43.864;25.986;2022-10-16T05:32:30;102214.31;;;8.22;86.53
58245;BME280;44550;43.864;25.986;2022-10-16T05:36:32;102216.66;;;8.16;86.68
58245;BME280;44550;43.864;25.986;2022-10-16T05:40:41;102234.00;;;7.94;87.01
58245;BME280;44550;43.864;25.986;2022-10-16T05:44:45;102219.19;;;7.51;86.16
58245;BME280;44550;43.864;25.986;2022-10-16T05:48:59;102245.19;;;7.71;84.83
58245;BME280;44550;43.864;25.986;2022-10-16T05:53:01;102249.75;;;7.56;85.00
58245;BME280;44550;43.864;25.986;2022-10-16T05:57:09;102223.88;;;7.20;85.05
58245;BME280;44550;43.864;25.986;2022-10-16T06:01:11;102253.84;;;7.50;85.34
58245;BME280;44550;43.864;25.986;2022-10-16T06:05:30;102262.66;;;7.94;84.00
58245;BME280;44550;43.864;25.986;2022-10-16T06:09:49;102207.41;;;8.02;82.64
58245;BME280;44550;43.864;25.986;2022-10-16T06:14:20;102265.03;;;8.74;81.33
58245;BME280;44550;43.864;25.986;2022-10-16T06:18:26;102274.88;;;8.81;80.86
58245;BME280;44550;43.864;25.986;2022-10-16T06:22:30;102274.72;;;9.00;81.30
58245;BME280;44550;43.864;25.986;2022-10-16T06:26:45;102248.38;;;8.92;81.97
58245;BME280;44550;43.864;25.986;2022-10-16T06:30:48;102286.44;;;9.58;81.05
58245;BME280;44550;43.864;25.986;2022-10-16T06:35:06;102286.59;;;9.62;81.77
58245;BME280;44550;43.864;25.986;2022-10-16T06:39:22;102288.31;;;9.62;82.10
58245;BME280;44550;43.864;25.986;2022-10-16T06:43:23;102254.00;;;10.02;80.26
58245;BME280;44550;43.864;25.986;2022-10-16T06:48:07;102258.78;;;10.16;79.21
58245;BME280;44550;43.864;25.986;2022-10-16T06:52:39;102251.06;;;10.46;78.40
58245;BME280;44550;43.864;25.986;2022-10-16T06:57:58;102277.72;;;10.61;78.42
58245;BME280;44550;43.864;25.986;2022-10-16T07:02:07;102302.53;;;11.02;76.97
58245;BME280;44550;43.864;25.986;2022-10-16T07:06:08;102271.66;;;10.91;76.45
58245;BME280;44550;43.864;25.986;2022-10-16T07:10:08;102301.66;;;11.02;76.43
58245;BME280;44550;43.864;25.986;2022-10-16T07:14:16;102307.34;;;11.17;76.09
58245;BME280;44550;43.864;25.986;2022-10-16T07:18:15;102287.69;;;11.32;75.87
58245;BME280;44550;43.864;25.986;2022-10-16T07:22:15;102305.00;;;11.58;75.23
58245;BME280;44550;43.864;25.986;2022-10-16T07:26:14;102308.22;;;11.80;73.98
58245;BME280;44550;43.864;25.986;2022-10-16T07:30:15;102309.06;;;12.10;74.19
58245;BME280;44550;43.864;25.986;2022-10-16T07:34:17;102304.22;;;12.26;72.95
58245;BME280;44550;43.864;25.986;2022-10-16T07:38:18;102309.00;;;12.42;70.88
58245;BME280;44550;43.864;25.986;2022-10-16T07:42:19;102306.56;;;12.50;70.66
58245;BME280;44550;43.864;25.986;2022-10-16T07:46:22;102257.72;;;12.56;72.88
58245;BME280;44550;43.864;25.986;2022-10-16T07:50:24;102311.94;;;13.33;70.23
58245;BME280;44550;43.864;25.986;2022-10-16T07:54:25;102306.88;;;13.88;69.12
58245;BME280;44550;43.864;25.986;2022-10-16T07:58:34;102306.47;;;13.66;62.85
58245;BME280;44550;43.864;25.986;2022-10-16T08:02:52;102310.38;;;13.41;62.80
58245;BME280;44550;43.864;25.986;2022-10-16T08:07:06;102259.50;;;12.97;64.65
58245;BME280;44550;43.864;25.986;2022-10-16T08:11:19;102281.72;;;13.12;63.80
58245;BME280;44550;43.864;25.986;2022-10-16T08:15:26;102315.53;;;13.83;62.39
58245;BME280;44550;43.864;25.986;2022-10-16T08:19:30;102297.38;;;13.49;62.54
58245;BME280;44550;43.864;25.986;2022-10-16T08:23:34;102302.06;;;13.65;62.52
58245;BME280;44550;43.864;25.986;2022-10-16T08:27:34;102312.09;;;13.86;62.71
58245;BME280;44550;43.864;25.986;2022-10-16T08:31:33;102321.22;;;14.05;61.22
58245;BME280;44550;43.864;25.986;2022-10-16T08:35:36;102317.44;;;14.42;60.28
58245;BME280;44550;43.864;25.986;2022-10-16T08:39:36;102322.03;;;14.02;60.77
58245;BME280;44550;43.864;25.986;2022-10-16T08:43:43;102330.69;;;13.95;61.48
58245;BME280;44550;43.864;25.986;2022-10-16T08:47:58;102314.19;;;14.04;63.40
58245;BME280;44550;43.864;25.986;2022-10-16T08:52:02;102327.03;;;14.39;63.53
58245;BME280;44550;43.864;25.986;2022-10-16T08:56:03;102283.47;;;14.56;64.29
58245;BME280;44550;43.864;25.986;2022-10-16T09:00:11;102317.59;;;15.09;62.71
58245;BME280;44550;43.864;25.986;2022-10-16T09:04:48;102322.38;;;15.38;60.90
58245;BME280;44550;43.864;25.986;2022-10-16T09:13:17;102320.47;;;16.04;58.71
58245;BME280;44550;43.864;25.986;2022-10-16T09:17:26;102322.44;;;16.28;57.55
58245;BME280;44550;43.864;25.986;2022-10-16T09:21:39;102318.22;;;16.47;56.51
58245;BME280;44550;43.864;25.986;2022-10-16T09:25:44;102297.09;;;16.47;55.15
58245;BME280;44550;43.864;25.986;2022-10-16T09:29:56;102321.81;;;16.56;55.28
58245;BME280;44550;43.864;25.986;2022-10-16T09:34:02;102313.25;;;16.86;54.28
58245;BME280;44550;43.864;25.986;2022-10-16T09:38:03;102296.63;;;17.09;52.26
58245;BME280;44550;43.864;25.986;2022-10-16T09:42:05;102312.63;;;17.46;50.38
58245;BME280;44550;43.864;25.986;2022-10-16T09:46:09;102307.22;;;17.18;50.46
58245;BME280;44550;43.864;25.986;2022-10-16T09:50:23;102303.63;;;16.99;50.70
58245;BME280;44550;43.864;25.986;2022-10-16T09:54:23;102296.53;;;16.95;51.89
58245;BME280;44550;43.864;25.986;2022-10-16T09:58:26;102292.31;;;17.34;49.92
58245;BME280;44550;43.864;25.986;2022-10-16T10:02:30;102281.75;;;17.37;50.35
58245;BME280;44550;43.864;25.986;2022-10-16T10:06:32;102270.34;;;17.49;49.51
58245;BME280;44550;43.864;25.986;2022-10-16T10:10:41;102271.13;;;17.31;48.80
58245;BME280;44550;43.864;25.986;2022-10-16T10:14:44;102269.38;;;17.28;48.48
58245;BME280;44550;43.864;25.986;2022-10-16T10:18:58;102271.25;;;17.58;47.85
58245;BME280;44550;43.864;25.986;2022-10-16T10:27:43;102269.56;;;17.93;46.44
58245;BME280;44550;43.864;25.986;2022-10-16T10:31:51;102233.38;;;17.79;47.02
58245;BME280;44550;43.864;25.986;2022-10-16T10:40:45;102259.75;;;17.58;47.13
58245;BME280;44550;43.864;25.986;2022-10-16T10:45:16;102262.47;;;17.87;47.58
58245;BME280;44550;43.864;25.986;2022-10-16T10:49:39;102254.56;;;17.86;47.34
58245;BME280;44550;43.864;25.986;2022-10-16T10:53:51;102231.59;;;17.88;46.66
58245;BME280;44550;43.864;25.986;2022-10-16T10:58:13;102243.09;;;18.13;45.89
58245;BME280;44550;43.864;25.986;2022-10-16T11:02:48;102220.13;;;18.24;46.02
58245;BME280;44550;43.864;25.986;2022-10-16T11:06:55;102240.44;;;18.14;44.66
58245;BME280;44550;43.864;25.986;2022-10-16T11:11:02;102242.19;;;18.17;44.65
58245;BME280;44550;43.864;25.986;2022-10-16T11:15:11;102238.66;;;18.22;42.22
58245;BME280;44550;43.864;25.986;2022-10-16T11:19:25;102208.66;;;18.25;43.59
58245;BME280;44550;43.864;25.986;2022-10-16T11:23:30;102245.66;;;18.78;42.86
58245;BME280;44550;43.864;25.986;2022-10-16T11:27:37;102230.66;;;18.77;42.84
58245;BME280;44550;43.864;25.986;2022-10-16T11:31:41;102240.38;;;18.57;41.94
58245;BME280;44550;43.864;25.986;2022-10-16T11:35:46;102234.22;;;18.43;42.97
58245;BME280;44550;43.864;25.986;2022-10-16T11:39:48;102227.19;;;18.29;43.26
58245;BME280;44550;43.864;25.986;2022-10-16T11:44:00;102223.66;;;18.20;43.30
58245;BME280;44550;43.864;25.986;2022-10-16T11:48:12;102220.16;;;18.12;43.87
58245;BME280;44550;43.864;25.986;2022-10-16T11:52:19;102230.75;;;18.05;44.81
58245;BME280;44550;43.864;25.986;2022-10-16T11:56:21;102213.09;;;17.98;44.70
58245;BME280;44550;43.864;25.986;2022-10-16T12:00:25;102221.03;;;18.12;45.07
58245;BME280;44550;43.864;25.986;2022-10-16T12:04:33;102211.31;;;18.16;44.94
58245;BME280;44550;43.864;25.986;2022-10-16T12:08:35;102204.25;;;18.31;44.64
58245;BME280;44550;43.864;25.986;2022-10-16T12:12:38;102205.06;;;18.57;43.50
58245;BME280;44550;43.864;25.986;2022-10-16T12:16:51;102231.44;;;19.04;42.41
58245;BME280;44550;43.864;25.986;2022-10-16T12:20:55;102224.34;;;19.03;42.11
58245;BME280;44550;43.864;25.986;2022-10-16T12:25:02;102222.56;;;19.05;42.41
58245;BME280;44550;43.864;25.986;2022-10-16T12:29:22;102237.50;;;19.23;42.76
58245;BME280;44550;43.864;25.986;2022-10-16T12:33:26;102243.50;;;19.65;41.16
58245;BME280;44550;43.864;25.986;2022-10-16T12:37:31;102229.38;;;19.55;41.29
58245;BME280;44550;43.864;25.986;2022-10-16T12:41:36;102236.53;;;19.41;41.26
58245;BME280;44550;43.864;25.986;2022-10-16T12:45:37;102191.53;;;19.27;41.91
58245;BME280;44550;43.864;25.986;2022-10-16T12:49:48;102220.59;;;19.42;40.83
58245;BME280;44550;43.864;25.986;2022-10-16T12:53:58;102203.06;;;19.14;41.03
58245;BME280;44550;43.864;25.986;2022-10-16T12:58:09;102197.81;;;19.11;40.96
58245;BME280;44550;43.864;25.986;2022-10-16T13:02:33;102230.38;;;19.36;40.89
58245;BME280;44550;43.864;25.986;2022-10-16T13:06:46;102240.09;;;19.38;41.20
58245;BME280;44550;43.864;25.986;2022-10-16T13:11:00;102246.44;;;19.04;41.48
58245;BME280;44550;43.864;25.986;2022-10-16T13:15:11;102235.84;;;19.05;41.74
58245;BME280;44550;43.864;25.986;2022-10-16T13:19:24;102227.00;;;19.08;41.06
58245;BME280;44550;43.864;25.986;2022-10-16T13:23:34;102239.41;;;19.01;40.95
58245;BME280;44550;43.864;25.986;2022-10-16T13:27:43;102250.88;;;19.05;41.00
58245;BME280;44550;43.864;25.986;2022-10-16T13:31:45;102251.78;;;18.94;41.52
58245;BME280;44550;43.864;25.986;2022-10-16T13:35:50;102245.56;;;19.01;41.24
58245;BME280;44550;43.864;25.986;2022-10-16T13:40:04;102241.13;;;19.04;40.85
58245;BME280;44550;43.864;25.986;2022-10-16T13:44:14;102245.63;;;18.85;40.20
58245;BME280;44550;43.864;25.986;2022-10-16T13:48:14;102237.66;;;18.91;40.64
58245;BME280;44550;43.864;25.986;2022-10-16T13:52:18;102236.78;;;18.86;40.73
58245;BME280;44550;43.864;25.986;2022-10-16T13:56:22;102250.94;;;18.82;40.73
58245;BME280;44550;43.864;25.986;2022-10-16T14:00:26;102256.25;;;18.75;40.60
58245;BME280;44550;43.864;25.986;2022-10-16T14:04:32;102260.66;;;18.69;40.68
58245;BME280;44550;43.864;25.986;2022-10-16T14:08:33;102264.22;;;18.55;41.49
58245;BME280;44550;43.864;25.986;2022-10-16T14:12:35;102264.22;;;18.62;41.63
58245;BME280;44550;43.864;25.986;2022-10-16T14:16:34;102258.91;;;18.62;41.05
58245;BME280;44550;43.864;25.986;2022-10-16T14:20:35;102264.25;;;18.51;41.43
58245;BME280;44550;43.864;25.986;2022-10-16T14:24:35;102270.38;;;18.61;41.12
58245;BME280;44550;43.864;25.986;2022-10-16T14:28:38;102281.88;;;18.61;40.76
58245;BME280;44550;43.864;25.986;2022-10-16T14:32:40;102247.47;;;18.40;40.72
58245;BME280;44550;43.864;25.986;2022-10-16T14:36:47;102252.78;;;18.35;40.55
58245;BME280;44550;43.864;25.986;2022-10-16T14:40:51;102269.53;;;18.48;40.17
58245;BME280;44550;43.864;25.986;2022-10-16T14:44:54;102273.97;;;18.41;40.87
58245;BME280;44550;43.864;25.986;2022-10-16T14:49:00;102274.84;;;18.40;41.11
58245;BME280;44550;43.864;25.986;2022-10-16T14:52:59;102276.59;;;18.40;41.30
58245;BME280;44550;43.864;25.986;2022-10-16T14:56:59;102275.72;;;18.44;41.26
58245;BME280;44550;43.864;25.986;2022-10-16T15:01:01;102272.19;;;18.45;41.36
58245;BME280;44550;43.864;25.986;2022-10-16T15:05:12;102271.31;;;18.32;41.21
58245;BME280;44550;43.864;25.986;2022-10-16T15:09:13;102278.38;;;18.16;41.45
58245;BME280;44550;43.864;25.986;2022-10-16T15:13:13;102278.38;;;18.22;41.63
58245;BME280;44550;43.864;25.986;2022-10-16T15:17:15;102288.09;;;18.31;41.17
58245;BME280;44550;43.864;25.986;2022-10-16T15:21:23;102299.56;;;18.38;42.00
58245;BME280;44550;43.864;25.986;2022-10-16T15:25:31;102296.00;;;18.52;42.24
58245;BME280;44550;43.864;25.986;2022-10-16T15:29:31;102301.31;;;18.65;42.58
58245;BME280;44550;43.864;25.986;2022-10-16T15:33:33;102300.41;;;18.50;42.86
58245;BME280;44550;43.864;25.986;2022-10-16T15:37:36;102273.97;;;18.21;43.43
58245;BME280;44550;43.864;25.986;2022-10-16T15:41:36;102315.47;;;18.38;43.08
58245;BME280;44550;43.864;25.986;2022-10-16T15:45:40;102318.97;;;18.23;44.33
58245;BME280;44550;43.864;25.986;2022-10-16T15:49:44;102321.63;;;18.23;44.41
58245;BME280;44550;43.864;25.986;2022-10-16T15:53:47;102328.69;;;18.12;44.36
58245;BME280;44550;43.864;25.986;2022-10-16T15:57:48;102300.25;;;17.37;45.46
58245;BME280;44550;43.864;25.986;2022-10-16T16:01:48;102332.72;;;17.08;47.03
58245;BME280;44550;43.864;25.986;2022-10-16T16:05:50;102304.28;;;16.66;47.91
58245;BME280;44550;43.864;25.986;2022-10-16T16:09:50;102341.28;;;16.71;48.67
58245;BME280;44550;43.864;25.986;2022-10-16T16:13:56;102348.16;;;16.50;49.55
58245;BME280;44550;43.864;25.986;2022-10-16T16:17:56;102358.56;;;16.32;50.23
58245;BME280;44550;43.864;25.986;2022-10-16T16:22:00;102345.13;;;16.04;50.67
58245;BME280;44550;43.864;25.986;2022-10-16T16:26:04;102361.88;;;16.09;50.85
58245;BME280;44550;43.864;25.986;2022-10-16T16:30:06;102367.09;;;16.05;51.27
58245;BME280;44550;43.864;25.986;2022-10-16T16:34:06;102361.75;;;15.97;51.08
58245;BME280;44550;43.864;25.986;2022-10-16T16:38:08;102369.53;;;15.83;51.93
58245;BME280;44550;43.864;25.986;2022-10-16T16:42:08;102372.94;;;15.73;52.13
58245;BME280;44550;43.864;25.986;2022-10-16T16:46:08;102379.78;;;15.62;52.53
58245;BME280;44550;43.864;25.986;2022-10-16T16:50:08;102375.97;;;15.37;52.84
58245;BME280;44550;43.864;25.986;2022-10-16T16:54:10;102384.13;;;14.96;53.91
58245;BME280;44550;43.864;25.986;2022-10-16T16:58:11;102387.34;;;14.76;54.67
58245;BME280;44550;43.864;25.986;2022-10-16T17:02:11;102379.94;;;14.51;55.58
58245;BME280;44550;43.864;25.986;2022-10-16T17:06:12;102377.47;;;14.13;56.52
58245;BME280;44550;43.864;25.986;2022-10-16T17:10:17;102402.81;;;14.08;57.35
58245;BME280;44550;43.864;25.986;2022-10-16T17:14:16;102385.69;;;13.84;57.87
58245;BME280;44550;43.864;25.986;2022-10-16T17:18:16;102415.03;;;14.06;57.71
58245;BME280;44550;43.864;25.986;2022-10-16T17:22:16;102423.03;;;14.10;57.82
58245;BME280;44550;43.864;25.986;2022-10-16T17:26:18;102416.72;;;14.02;58.26
58245;BME280;44550;43.864;25.986;2022-10-16T17:30:18;102419.16;;;13.93;58.40
58245;BME280;44550;43.864;25.986;2022-10-16T17:34:17;102424.09;;;13.76;58.94
58245;BME280;44550;43.864;25.986;2022-10-16T17:38:17;102430.00;;;13.65;59.02
58245;BME280;44550;43.864;25.986;2022-10-16T17:42:22;102437.91;;;13.66;58.96
58245;BME280;44550;43.864;25.986;2022-10-16T17:46:23;102430.06;;;13.68;58.77
58245;BME280;44550;43.864;25.986;2022-10-16T17:50:24;102437.81;;;13.61;58.60
58245;BME280;44550;43.864;25.986;2022-10-16T17:54:23;102434.16;;;13.55;58.52
58245;BME280;44550;43.864;25.986;2022-10-16T17:58:25;102433.78;;;13.38;58.90
58245;BME280;44550;43.864;25.986;2022-10-16T18:02:32;102443.75;;;13.16;59.76
58245;BME280;44550;43.864;25.986;2022-10-16T18:06:32;102442.41;;;12.98;59.96
58245;BME280;44550;43.864;25.986;2022-10-16T18:10:32;102434.38;;;12.90;59.98
58245;BME280;44550;43.864;25.986;2022-10-16T18:14:34;102448.44;;;12.92;59.33
58245;BME280;44550;43.864;25.986;2022-10-16T18:18:38;102447.72;;;12.99;58.77
58245;BME280;44550;43.864;25.986;2022-10-16T18:22:38;102450.28;;;12.96;58.79
58245;BME280;44550;43.864;25.986;2022-10-16T18:26:37;102451.13;;;12.95;58.75
58245;BME280;44550;43.864;25.986;2022-10-16T18:30:39;102458.25;;;13.01;58.71
58245;BME280;44550;43.864;25.986;2022-10-16T18:34:39;102462.53;;;12.96;58.66
58245;BME280;44550;43.864;25.986;2022-10-16T18:38:39;102468.47;;;12.88;58.76
58245;BME280;44550;43.864;25.986;2022-10-16T18:42:38;102470.00;;;12.80;58.88
58245;BME280;44550;43.864;25.986;2022-10-16T18:46:40;102480.25;;;12.71;59.22
58245;BME280;44550;43.864;25.986;2022-10-16T18:50:40;102485.31;;;12.62;59.51
58245;BME280;44550;43.864;25.986;2022-10-16T18:54:39;102486.72;;;12.51;59.84
58245;BME280;44550;43.864;25.986;2022-10-16T18:58:40;102487.38;;;12.42;59.91
58245;BME280;44550;43.864;25.986;2022-10-16T19:02:42;102465.69;;;12.16;60.62
58245;BME280;44550;43.864;25.986;2022-10-16T19:06:44;102502.78;;;12.30;60.78
58245;BME280;44550;43.864;25.986;2022-10-16T19:10:44;102503.41;;;12.21;60.93
58245;BME280;44550;43.864;25.986;2022-10-16T19:14:46;102505.69;;;12.09;61.26
58245;BME280;44550;43.864;25.986;2022-10-16T19:18:50;102500.88;;;11.94;61.73
58245;BME280;44550;43.864;25.986;2022-10-16T19:22:50;102506.66;;;11.84;62.02
58245;BME280;44550;43.864;25.986;2022-10-16T19:26:59;102505.94;;;11.59;62.71
58245;BME280;44550;43.864;25.986;2022-10-16T19:31:00;102507.97;;;11.41;63.30
58245;BME280;44550;43.864;25.986;2022-10-16T19:35:02;102517.66;;;11.43;63.53
58245;BME280;44550;43.864;25.986;2022-10-16T19:39:06;102515.81;;;11.41;63.54
58245;BME280;44550;43.864;25.986;2022-10-16T19:43:05;102514.03;;;11.40;63.13
58245;BME280;44550;43.864;25.986;2022-10-16T19:47:05;102532.91;;;11.57;62.87
58245;BME280;44550;43.864;25.986;2022-10-16T19:51:09;102537.53;;;11.65;62.59
58245;BME280;44550;43.864;25.986;2022-10-16T19:55:12;102541.94;;;11.66;62.23
58245;BME280;44550;43.864;25.986;2022-10-16T19:59:13;102546.13;;;11.60;62.32
58245;BME280;44550;43.864;25.986;2022-10-16T20:03:15;102557.34;;;11.56;62.42
58245;BME280;44550;43.864;25.986;2022-10-16T20:07:16;102556.44;;;11.55;62.37
58245;BME280;44550;43.864;25.986;2022-10-16T20:11:19;102557.69;;;11.66;62.03
58245;BME280;44550;43.864;25.986;2022-10-16T20:15:19;102567.31;;;11.67;61.84
58245;BME280;44550;43.864;25.986;2022-10-16T20:19:19;102571.53;;;11.62;61.85
58245;BME280;44550;43.864;25.986;2022-10-16T20:23:21;102569.69;;;11.60;61.90
58245;BME280;44550;43.864;25.986;2022-10-16T20:27:20;102570.25;;;11.78;61.61
58245;BME280;44550;43.864;25.986;2022-10-16T20:31:23;102565.56;;;11.95;60.83
58245;BME280;44550;43.864;25.986;2022-10-16T20:35:23;102562.03;;;11.93;60.25
58245;BME280;44550;43.864;25.986;2022-10-16T20:39:24;102571.19;;;12.07;60.11
58245;BME280;44550;43.864;25.986;2022-10-16T20:43:24;102566.22;;;12.16;59.45
58245;BME280;44550;43.864;25.986;2022-10-16T20:47:23;102567.66;;;12.35;59.31
58245;BME280;44550;43.864;25.986;2022-10-16T20:51:24;102578.91;;;12.63;58.39
58245;BME280;44550;43.864;25.986;2022-10-16T20:55:27;102584.97;;;12.60;58.14
58245;BME280;44550;43.864;25.986;2022-10-16T20:59:27;102582.75;;;12.44;57.65
58245;BME280;44550;43.864;25.986;2022-10-16T21:03:27;102579.34;;;12.16;58.29
58245;BME280;44550;43.864;25.986;2022-10-16T21:07:27;102583.09;;;11.96;58.78
58245;BME280;44550;43.864;25.986;2022-10-16T21:11:31;102576.78;;;11.89;58.94
58245;BME280;44550;43.864;25.986;2022-10-16T21:15:31;102585.25;;;11.82;59.28
58245;BME280;44550;43.864;25.986;2022-10-16T21:19:31;102588.03;;;11.60;60.10